KPLR/PLR METAR and TAF weather

Enter ICAO airport designator
Station Type Date Time Source
KPLR METAR 2019/06/19 06:55 UTC NOAA

KPLR 190655Z AUTO 20005KT 10SM BKN010 BKN015 23/23 A2989 RMK A01


Station Type Date Time Source
KPLR Decoded METAR 2019/06/19 06:55 UTC NOAA

Station name not available
Jun 19, 2019 - 02:55 AM EDT / 2019.06.19 0655 UTC
Wind: from the SSW (200 degrees) at 6 MPH (5 KT):0
Visibility: 10 mile(s):0
Sky conditions: mostly cloudy
Temperature: 73 F (23 C)
Dew Point: 73 F (23 C)
Relative Humidity: 100%
Pressure (altimeter): 29.89 in. Hg (1012 hPa)
ob: KPLR 190655Z AUTO 20005KT 10SM BKN010 BKN015 23/23 A2989 RMK A01
cycle: 7

Station Type Date Time Source
KPLR TAF UTC NOAA

Error!

Example: see airport list